createdAt,value
2019-02-28T00:01:43.202Z,91.80
2019-02-28T00:04:11.108Z,91.80
2019-02-28T00:06:38.951Z,91.10
2019-02-28T00:09:08.903Z,90.70
2019-02-28T00:11:39.451Z,90.80
2019-02-28T00:14:08.223Z,90.80
2019-02-28T00:16:36.426Z,92.20
2019-02-28T00:19:04.740Z,93.20
2019-02-28T00:21:32.710Z,93.80
2019-02-28T00:24:00.682Z,93.60
2019-02-28T00:26:28.488Z,93.20
2019-02-28T00:28:56.961Z,93.00
2019-02-28T00:31:26.117Z,92.80
2019-02-28T00:33:55.064Z,91.60
2019-02-28T00:36:24.241Z,91.70
2019-02-28T00:38:52.030Z,90.70
2019-02-28T00:41:19.802Z,90.90
2019-02-28T00:43:48.055Z,91.70
2019-02-28T00:46:16.025Z,91.50
2019-02-28T00:48:44.391Z,91.40
2019-02-28T00:51:12.367Z,91.10
2019-02-28T00:53:40.490Z,92.20
2019-02-28T00:56:08.624Z,93.70
2019-02-28T00:58:36.674Z,93.20
2019-02-28T01:01:08.371Z,93.10
2019-02-28T01:03:36.486Z,94.10
2019-02-28T01:06:09.771Z,94.00
2019-02-28T01:08:34.806Z,94.40
2019-02-28T01:11:03.201Z,94.20
2019-02-28T01:13:33.373Z,93.90
2019-02-28T01:16:02.771Z,93.90
2019-02-28T01:18:34.467Z,95.10
2019-02-28T01:21:02.260Z,94.70
2019-02-28T01:23:30.249Z,95.80
2019-02-28T01:25:58.365Z,95.30
2019-02-28T01:28:27.645Z,95.70
2019-02-28T01:30:56.743Z,95.10
2019-02-28T01:33:25.640Z,94.70
2019-02-28T01:35:56.675Z,94.50
2019-02-28T01:38:25.179Z,94.20
2019-02-28T01:40:53.695Z,93.50
2019-02-28T01:43:21.584Z,93.60
2019-02-28T01:45:52.038Z,92.80
2019-02-28T01:48:22.601Z,92.50
2019-02-28T01:50:51.668Z,92.90
2019-02-28T01:53:19.761Z,93.10
2019-02-28T01:55:48.849Z,92.70
2019-02-28T01:58:18.816Z,93.70
2019-02-28T02:00:48.998Z,95.70
2019-02-28T02:03:16.994Z,95.10
2019-02-28T02:05:48.270Z,96.50
2019-02-28T02:08:17.832Z,97.20
2019-02-28T02:10:45.720Z,97.40
2019-02-28T02:13:13.791Z,98.00
2019-02-28T02:15:43.294Z,97.40
2019-02-28T02:18:11.064Z,96.90
2019-02-28T02:20:39.038Z,98.30
2019-02-28T02:23:06.964Z,98.40
2019-02-28T02:25:36.965Z,98.90
2019-02-28T02:28:04.422Z,99.20
2019-02-28T02:30:32.373Z,99.30
2019-02-28T02:33:00.152Z,98.50
2019-02-28T02:35:28.122Z,99.70
2019-02-28T02:37:55.920Z,98.80
2019-02-28T02:40:24.331Z,99.50
2019-02-28T02:42:54.173Z,99.30
2019-02-28T02:45:22.253Z,98.00
2019-02-28T02:47:50.029Z,98.60
2019-02-28T02:50:18.105Z,99.10
2019-02-28T02:52:46.077Z,99.40
2019-02-28T02:55:14.161Z,98.60
2019-02-28T02:57:43.150Z,98.30
2019-02-28T03:00:16.106Z,97.70
2019-02-28T03:02:43.917Z,97.80
2019-02-28T03:05:12.004Z,97.50
2019-02-28T03:07:39.894Z,96.40
2019-02-28T03:10:09.732Z,96.90
2019-02-28T03:12:37.498Z,96.60
2019-02-28T03:15:06.063Z,96.00
2019-02-28T03:17:33.992Z,96.40
2019-02-28T03:20:01.969Z,96.50
2019-02-28T03:22:30.416Z,97.10
2019-02-28T03:24:58.298Z,97.00
2019-02-28T03:27:26.232Z,96.80
2019-02-28T03:29:54.009Z,96.30
2019-02-28T03:32:21.782Z,96.90
2019-02-28T03:34:58.059Z,97.30
2019-02-28T03:37:19.391Z,97.10
2019-02-28T03:39:47.212Z,97.40
2019-02-28T03:42:15.073Z,97.80
2019-02-28T03:44:44.093Z,97.70
2019-02-28T03:47:12.236Z,97.70
2019-02-28T03:49:40.036Z,97.60
2019-02-28T03:52:07.834Z,97.50
2019-02-28T03:54:35.741Z,97.90
2019-02-28T03:57:03.527Z,97.10
2019-02-28T03:59:31.305Z,97.30
2019-02-28T04:01:59.258Z,96.60
2019-02-28T04:04:29.076Z,95.90
2019-02-28T04:06:56.828Z,96.10
2019-02-28T04:09:24.618Z,96.40
2019-02-28T04:11:52.794Z,95.80
2019-02-28T04:14:20.577Z,95.90
2019-02-28T04:16:52.710Z,95.50
2019-02-28T04:19:22.611Z,96.70
2019-02-28T04:21:47.973Z,96.20
2019-02-28T04:24:15.933Z,95.80
2019-02-28T04:26:43.706Z,96.60
2019-02-28T04:29:12.694Z,97.60
2019-02-28T04:31:41.573Z,98.70
2019-02-28T04:34:12.974Z,98.50
2019-02-28T04:36:39.206Z,99.60
2019-02-28T04:39:07.025Z,99.90
2019-02-28T04:41:35.063Z,99.90
2019-02-28T04:44:03.300Z,99.90
2019-02-28T04:46:31.801Z,99.90
2019-02-28T04:49:00.679Z,99.90
2019-02-28T04:51:28.608Z,99.90
2019-02-28T04:53:56.447Z,99.90
2019-02-28T04:56:24.402Z,99.90
2019-02-28T04:58:56.456Z,99.90
2019-02-28T05:01:23.643Z,99.90
2019-02-28T05:03:52.750Z,99.90
2019-02-28T05:06:21.182Z,99.50
2019-02-28T05:08:49.860Z,99.40
2019-02-28T05:11:17.794Z,99.50
2019-02-28T05:13:48.858Z,99.90
2019-02-28T05:16:16.676Z,99.90
2019-02-28T05:18:44.764Z,99.90
2019-02-28T05:21:12.531Z,99.90
2019-02-28T05:23:40.493Z,99.90
2019-02-28T05:26:09.877Z,99.90
2019-02-28T05:28:41.207Z,99.90
2019-02-28T05:31:08.731Z,99.90
2019-02-28T05:33:38.453Z,99.90
2019-02-28T05:36:06.419Z,99.90
2019-02-28T05:38:34.185Z,99.90
2019-02-28T05:41:03.148Z,99.90
2019-02-28T05:43:32.172Z,99.90
2019-02-28T05:46:00.717Z,99.90
2019-02-28T05:48:28.494Z,99.90
2019-02-28T05:50:56.499Z,99.90
2019-02-28T05:53:24.685Z,99.90
2019-02-28T05:55:52.855Z,99.90
2019-02-28T05:58:21.004Z,99.90
2019-02-28T06:00:50.651Z,99.90
2019-02-28T06:03:18.410Z,99.90
2019-02-28T06:05:47.084Z,99.70
2019-02-28T06:08:15.279Z,99.90
2019-02-28T06:10:43.056Z,99.90
2019-02-28T06:13:10.821Z,99.90
2019-02-28T06:15:38.732Z,99.60
2019-02-28T06:18:06.488Z,99.00
2019-02-28T06:20:34.277Z,98.50
2019-02-28T06:23:02.200Z,98.60
2019-02-28T06:25:31.125Z,98.50
2019-02-28T06:28:00.294Z,98.40
2019-02-28T06:30:28.078Z,98.50
2019-02-28T06:32:59.223Z,98.80
2019-02-28T06:35:25.956Z,99.20
2019-02-28T06:37:53.743Z,98.90
2019-02-28T06:40:22.604Z,99.40
2019-02-28T06:42:50.595Z,99.00
2019-02-28T06:45:18.379Z,99.40
2019-02-28T06:47:49.524Z,99.70
2019-02-28T06:50:16.360Z,99.50
2019-02-28T06:52:44.158Z,99.30
2019-02-28T06:55:15.875Z,99.20
2019-02-28T06:57:43.863Z,98.30
2019-02-28T07:00:13.515Z,98.80
2019-02-28T07:02:41.579Z,98.40
2019-02-28T07:05:09.527Z,99.10
2019-02-28T07:07:37.305Z,98.90
2019-02-28T07:10:09.624Z,98.50
2019-02-28T07:12:36.955Z,98.80
2019-02-28T07:15:05.527Z,99.80
2019-02-28T07:17:33.483Z,99.90
2019-02-28T07:20:03.135Z,99.20
2019-02-28T07:22:31.015Z,99.70
2019-02-28T07:24:58.938Z,99.60
2019-02-28T07:27:29.729Z,99.50
2019-02-28T07:29:56.443Z,99.30
2019-02-28T07:32:26.154Z,98.90
2019-02-28T07:34:58.087Z,99.80
2019-02-28T07:37:25.147Z,99.50
2019-02-28T07:39:52.915Z,99.60
2019-02-28T07:42:20.678Z,99.80
2019-02-28T07:44:48.682Z,99.50
2019-02-28T07:47:17.525Z,99.90
2019-02-28T07:49:46.347Z,99.00
2019-02-28T07:52:14.119Z,99.20
2019-02-28T07:54:42.204Z,99.70
2019-02-28T07:57:09.991Z,99.00
2019-02-28T07:59:42.301Z,99.00
2019-02-28T08:02:07.646Z,97.70
2019-02-28T08:04:35.424Z,96.60
2019-02-28T08:07:03.572Z,97.80
2019-02-28T08:09:31.593Z,98.40
2019-02-28T08:11:59.382Z,98.00
2019-02-28T08:14:27.152Z,97.10
2019-02-28T08:16:55.085Z,97.60
2019-02-28T08:19:27.017Z,97.90
2019-02-28T08:21:54.020Z,98.00
2019-02-28T08:24:21.965Z,98.00
2019-02-28T08:26:50.692Z,97.90
2019-02-28T08:29:19.557Z,97.60
2019-02-28T08:31:47.328Z,97.80
2019-02-28T08:34:15.331Z,96.80
2019-02-28T08:36:43.881Z,95.70
2019-02-28T08:39:16.191Z,95.40
2019-02-28T08:41:44.454Z,94.90
2019-02-28T08:44:12.230Z,93.00
2019-02-28T08:46:40.149Z,92.90
2019-02-28T08:49:08.151Z,92.40
2019-02-28T08:51:35.964Z,91.00
2019-02-28T08:54:06.049Z,91.00
2019-02-28T08:56:37.813Z,91.10
2019-02-28T08:59:11.720Z,91.00
2019-02-28T09:01:40.046Z,90.80
2019-02-28T09:04:05.854Z,91.70
2019-02-28T09:06:33.786Z,91.90
2019-02-28T09:09:01.866Z,91.20
2019-02-28T09:11:29.660Z,90.60
2019-02-28T09:13:57.577Z,88.10
2019-02-28T09:16:25.591Z,89.70
2019-02-28T09:18:53.381Z,90.20
2019-02-28T09:21:21.190Z,90.00
2019-02-28T09:23:49.113Z,90.20
2019-02-28T09:26:16.891Z,90.30
2019-02-28T09:28:47.489Z,90.80
2019-02-28T09:31:14.519Z,90.30
2019-02-28T09:33:42.343Z,89.00
2019-02-28T09:36:10.292Z,87.40
2019-02-28T09:38:38.103Z,87.80
2019-02-28T09:41:06.040Z,89.30
2019-02-28T09:43:33.869Z,90.40
2019-02-28T09:46:03.057Z,90.30
2019-02-28T09:48:34.017Z,88.10
2019-02-28T09:51:00.925Z,90.00
2019-02-28T09:53:28.725Z,89.90
2019-02-28T09:55:57.760Z,89.40
2019-02-28T09:58:29.318Z,89.90
2019-02-28T10:00:57.212Z,88.90
2019-02-28T10:03:25.004Z,90.10
2019-02-28T10:05:52.935Z,85.40
2019-02-28T10:08:21.811Z,87.70
2019-02-28T10:10:52.485Z,86.20
2019-02-28T10:13:19.617Z,85.30
2019-02-28T10:15:47.544Z,84.70
2019-02-28T10:18:15.306Z,85.40
2019-02-28T10:20:43.254Z,84.90
2019-02-28T10:23:11.011Z,84.40
2019-02-28T10:25:43.360Z,86.00
2019-02-28T10:28:08.793Z,84.60
2019-02-28T10:30:37.901Z,84.70
2019-02-28T10:33:05.700Z,84.60
2019-02-28T10:35:36.683Z,83.60
2019-02-28T10:38:05.063Z,83.20
2019-02-28T10:40:33.061Z,80.70
2019-02-28T10:43:00.852Z,82.00
2019-02-28T10:45:28.952Z,81.60
2019-02-28T10:47:56.882Z,80.50
2019-02-28T10:50:25.948Z,81.90
2019-02-28T10:52:53.896Z,78.50
2019-02-28T10:55:22.464Z,78.20
2019-02-28T10:57:51.114Z,78.70
2019-02-28T11:00:29.484Z,76.70
2019-02-28T11:03:01.610Z,77.60
2019-02-28T11:05:31.268Z,79.60
2019-02-28T11:08:00.493Z,76.10
2019-02-28T11:10:35.417Z,77.70
2019-02-28T11:13:07.764Z,74.10
2019-02-28T11:15:35.741Z,75.50
2019-02-28T11:18:08.558Z,74.60
2019-02-28T11:20:36.374Z,77.70
2019-02-28T11:23:04.503Z,79.90
2019-02-28T11:25:35.528Z,80.90
2019-02-28T11:28:02.429Z,81.70
2019-02-28T11:30:30.569Z,82.10
2019-02-28T11:33:03.003Z,82.40
2019-02-28T11:35:30.947Z,83.20
2019-02-28T11:37:59.637Z,85.40
2019-02-28T11:40:28.568Z,87.40
2019-02-28T11:42:59.436Z,90.60
2019-02-28T11:45:27.684Z,91.80
2019-02-28T11:47:57.760Z,92.90
2019-02-28T11:50:25.674Z,93.00
2019-02-28T11:52:53.620Z,91.90
2019-02-28T11:55:21.746Z,91.40
2019-02-28T11:57:49.912Z,91.40
2019-02-28T12:00:21.076Z,92.20
2019-02-28T12:02:53.345Z,91.50
2019-02-28T12:05:18.939Z,90.50
2019-02-28T12:07:46.736Z,90.60
2019-02-28T12:10:14.661Z,91.40
2019-02-28T12:12:44.715Z,91.00
2019-02-28T12:15:14.304Z,92.20
2019-02-28T12:17:42.312Z,92.00
2019-02-28T12:20:11.875Z,91.30
2019-02-28T12:22:39.699Z,90.90
2019-02-28T12:25:10.420Z,90.50
2019-02-28T12:27:38.458Z,90.60
2019-02-28T12:30:11.069Z,90.50
2019-02-28T12:32:40.350Z,90.40
2019-02-28T12:35:08.930Z,90.50
2019-02-28T12:37:36.732Z,90.40
2019-02-28T12:40:10.043Z,90.40
2019-02-28T12:42:36.990Z,90.40
2019-02-28T12:45:09.029Z,90.50
2019-02-28T12:47:38.580Z,91.00
2019-02-28T12:50:08.805Z,90.70
2019-02-28T12:52:36.843Z,90.60
2019-02-28T12:55:06.680Z,91.40
2019-02-28T12:57:34.503Z,92.40
2019-02-28T13:00:04.723Z,92.50
2019-02-28T13:02:33.022Z,92.60
2019-02-28T13:05:00.823Z,92.40
2019-02-28T13:07:30.485Z,93.30
2019-02-28T13:09:58.691Z,93.50
2019-02-28T13:12:26.485Z,93.00
2019-02-28T13:14:54.839Z,92.20
2019-02-28T13:17:22.728Z,91.90
2019-02-28T13:19:53.206Z,90.70
2019-02-28T13:22:23.494Z,90.10
2019-02-28T13:24:50.299Z,91.10
2019-02-28T13:27:18.071Z,90.20
2019-02-28T13:29:46.037Z,88.40
2019-02-28T13:32:13.835Z,89.90
2019-02-28T13:34:41.784Z,90.00
2019-02-28T13:37:10.019Z,88.20
2019-02-28T13:39:38.026Z,86.40
2019-02-28T13:42:07.528Z,84.30
2019-02-28T13:44:36.326Z,81.00
2019-02-28T13:47:09.394Z,82.50
2019-02-28T13:49:36.177Z,81.90
2019-02-28T13:52:06.086Z,80.90
2019-02-28T13:54:34.001Z,80.20
2019-02-28T13:57:08.103Z,79.70
2019-02-28T13:59:31.888Z,78.70
2019-02-28T14:02:00.652Z,79.10
2019-02-28T14:04:28.662Z,77.50
2019-02-28T14:06:56.812Z,74.20
2019-02-28T14:09:24.921Z,74.90
2019-02-28T14:11:53.175Z,74.10
2019-02-28T14:14:22.278Z,74.80
2019-02-28T14:17:09.748Z,74.50
2019-02-28T14:19:37.815Z,72.70
2019-02-28T14:22:08.519Z,72.90
2019-02-28T14:24:35.308Z,72.90
2019-02-28T14:27:03.309Z,74.40
2019-02-28T14:29:31.075Z,73.00
2019-02-28T14:31:58.870Z,73.70
2019-02-28T14:34:27.220Z,75.50
2019-02-28T14:36:55.303Z,75.50
2019-02-28T14:39:23.076Z,76.20
2019-02-28T14:41:50.885Z,77.10
2019-02-28T14:44:18.823Z,76.70
2019-02-28T14:46:49.766Z,76.20
2019-02-28T14:49:18.297Z,75.50
2019-02-28T14:51:46.082Z,76.10
2019-02-28T14:54:14.085Z,75.20
2019-02-28T14:56:42.243Z,73.40
2019-02-28T14:59:11.018Z,72.80
2019-02-28T15:01:42.297Z,75.20
2019-02-28T15:04:10.217Z,76.70
2019-02-28T15:06:38.230Z,76.50
2019-02-28T15:09:15.903Z,77.20
2019-02-28T15:11:46.904Z,77.70
2019-02-28T15:14:13.987Z,81.70
2019-02-28T15:16:41.778Z,89.80
2019-02-28T15:19:10.836Z,91.90
2019-02-28T15:21:42.353Z,92.40
2019-02-28T15:24:09.726Z,93.30
2019-02-28T15:26:37.827Z,94.70
2019-02-28T15:29:05.597Z,94.50
2019-02-28T15:31:33.573Z,94.80
2019-02-28T15:34:02.292Z,96.50
2019-02-28T15:36:32.434Z,98.00
2019-02-28T15:39:00.260Z,99.60
2019-02-28T15:41:30.720Z,99.90
2019-02-28T15:43:58.017Z,99.90
2019-02-28T15:46:25.808Z,99.90
2019-02-28T15:48:53.761Z,99.90
2019-02-28T15:51:21.551Z,99.90
2019-02-28T15:53:50.355Z,99.90
2019-02-28T15:56:20.056Z,99.90
2019-02-28T15:58:48.000Z,99.90
2019-02-28T16:01:15.910Z,99.90
2019-02-28T16:03:43.988Z,99.90
2019-02-28T16:06:11.773Z,99.90
2019-02-28T16:08:41.915Z,99.90
2019-02-28T16:11:09.517Z,99.90
2019-02-28T16:13:37.316Z,99.90
2019-02-28T16:16:05.258Z,99.90
2019-02-28T16:18:33.267Z,99.90
2019-02-28T16:21:03.505Z,99.90
2019-02-28T16:23:31.082Z,99.90
2019-02-28T16:25:59.108Z,99.90
2019-02-28T16:28:26.887Z,99.90
2019-02-28T16:30:54.697Z,99.90
2019-02-28T16:33:24.715Z,99.90
2019-02-28T16:35:52.394Z,99.90
2019-02-28T16:38:20.189Z,99.90
2019-02-28T16:40:49.905Z,99.60
2019-02-28T16:43:20.819Z,99.90
2019-02-28T16:45:48.850Z,99.70
2019-02-28T16:48:16.917Z,99.70
2019-02-28T16:50:44.741Z,99.90
2019-02-28T16:53:16.163Z,99.90
2019-02-28T16:55:42.449Z,99.90
2019-02-28T16:58:10.461Z,99.90
2019-02-28T17:00:39.555Z,99.90
2019-02-28T17:03:08.388Z,99.90
2019-02-28T17:05:36.189Z,99.90
2019-02-28T17:08:04.394Z,99.90
2019-02-28T17:10:36.504Z,99.90
2019-02-28T17:13:42.995Z,99.90
2019-02-28T17:16:17.233Z,99.90
2019-02-28T17:18:45.052Z,99.90
2019-02-28T17:21:16.692Z,99.90
2019-02-28T17:23:45.267Z,99.90
2019-02-28T17:26:13.197Z,99.90
2019-02-28T17:29:04.420Z,99.90
2019-02-28T17:31:47.979Z,99.90
2019-02-28T17:34:23.692Z,99.90
2019-02-28T17:36:50.528Z,99.90
2019-02-28T17:39:18.422Z,99.90
2019-02-28T17:41:47.589Z,99.90
2019-02-28T17:45:15.587Z,99.90
2019-02-28T17:48:35.798Z,99.40
2019-02-28T17:51:32.848Z,99.80
2019-02-28T17:54:58.186Z,99.90
2019-02-28T17:57:59.777Z,99.90
2019-02-28T18:01:20.495Z,99.90
2019-02-28T18:04:20.982Z,99.90
2019-02-28T18:07:26.666Z,99.90
2019-02-28T18:10:55.773Z,99.90
2019-02-28T18:14:14.620Z,99.90
2019-02-28T18:17:55.932Z,99.90
2019-02-28T18:25:06.572Z,99.90
2019-02-28T18:28:27.352Z,99.90
2019-02-28T18:31:19.157Z,99.90
2019-02-28T18:33:54.194Z,99.90
2019-02-28T18:36:26.029Z,99.90
2019-02-28T18:38:54.194Z,99.90
2019-02-28T18:41:22.310Z,99.90
2019-02-28T18:43:50.308Z,99.90
2019-02-28T18:46:18.363Z,99.90
2019-02-28T18:48:51.275Z,99.90
2019-02-28T18:51:19.167Z,99.90
2019-02-28T18:53:47.196Z,99.90
2019-02-28T18:56:15.290Z,99.90
2019-02-28T18:58:43.343Z,99.90
2019-02-28T19:01:11.506Z,99.90
2019-02-28T19:03:39.336Z,99.90
2019-02-28T19:06:07.133Z,99.90
2019-02-28T19:08:35.227Z,99.90
2019-02-28T19:11:06.399Z,99.90
2019-02-28T19:13:34.365Z,99.90
2019-02-28T19:16:02.411Z,99.90
2019-02-28T19:18:30.311Z,99.90
2019-02-28T19:20:58.182Z,99.90
2019-02-28T19:23:28.277Z,99.90
2019-02-28T19:25:56.276Z,99.90
2019-02-28T19:28:24.061Z,99.90
2019-02-28T19:30:51.939Z,99.90
2019-02-28T19:33:20.001Z,99.90
2019-02-28T19:35:47.842Z,99.90
2019-02-28T19:38:15.822Z,99.90
2019-02-28T19:40:43.605Z,99.90
2019-02-28T19:43:11.864Z,99.90
2019-02-28T19:45:41.261Z,99.90
2019-02-28T19:48:10.839Z,99.90
2019-02-28T19:50:38.768Z,99.90
2019-02-28T19:53:06.730Z,99.90
2019-02-28T19:55:35.176Z,99.90
2019-02-28T19:58:03.070Z,99.90
2019-02-28T20:00:31.033Z,99.90
2019-02-28T20:02:59.003Z,99.90
2019-02-28T20:05:26.897Z,99.90
2019-02-28T20:07:54.716Z,99.90
2019-02-28T20:10:22.748Z,99.90
2019-02-28T20:12:50.556Z,99.90
2019-02-28T20:15:20.710Z,99.90
2019-02-28T20:17:48.612Z,99.90
2019-02-28T20:20:16.814Z,99.90
2019-02-28T20:22:44.817Z,99.90
2019-02-28T20:25:13.291Z,99.90
2019-02-28T20:27:41.274Z,99.90
2019-02-28T20:30:12.620Z,99.90
2019-02-28T20:32:40.652Z,99.90
2019-02-28T20:35:08.856Z,99.90
2019-02-28T20:37:36.803Z,99.90
2019-02-28T20:40:08.093Z,99.90
2019-02-28T20:42:36.101Z,99.90
2019-02-28T20:45:05.741Z,99.90
2019-02-28T20:47:33.507Z,99.90
2019-02-28T20:50:01.476Z,99.90
2019-02-28T20:52:29.286Z,99.90
2019-02-28T20:54:57.112Z,99.90
2019-02-28T20:57:25.090Z,99.90
2019-02-28T20:59:52.883Z,99.90
2019-02-28T21:02:22.054Z,99.90
2019-02-28T21:04:49.865Z,99.90
2019-02-28T21:07:17.988Z,99.90
2019-02-28T21:09:47.719Z,99.90
2019-02-28T21:12:15.513Z,99.90
2019-02-28T21:14:43.331Z,99.90
2019-02-28T21:17:11.351Z,99.90
2019-02-28T21:19:39.289Z,99.90
2019-02-28T21:22:07.185Z,99.90
2019-02-28T21:24:35.805Z,99.90
2019-02-28T21:27:03.929Z,99.90
2019-02-28T21:29:33.324Z,99.90
2019-02-28T21:32:01.321Z,99.90
2019-02-28T21:34:29.180Z,99.90
2019-02-28T21:36:59.163Z,99.90
2019-02-28T21:39:27.074Z,99.90
2019-02-28T21:41:54.874Z,99.90
2019-02-28T21:44:22.675Z,99.90
2019-02-28T21:46:50.598Z,99.90
2019-02-28T21:49:18.395Z,99.90
2019-02-28T21:51:46.165Z,99.90
2019-02-28T21:54:15.850Z,99.90
2019-02-28T21:56:43.998Z,99.90
2019-02-28T21:59:11.820Z,99.90
2019-02-28T22:01:39.767Z,99.90
2019-02-28T22:04:07.882Z,99.90
2019-02-28T22:06:35.821Z,99.90
2019-02-28T22:09:05.557Z,99.90
2019-02-28T22:11:33.350Z,99.90
2019-02-28T22:14:02.407Z,99.90
2019-02-28T22:16:30.340Z,99.90
2019-02-28T22:18:58.162Z,99.90
2019-02-28T22:21:26.113Z,99.90
2019-02-28T22:23:53.954Z,99.90
2019-02-28T22:26:22.155Z,99.90
2019-02-28T22:28:49.929Z,99.90
2019-02-28T22:31:43.970Z,99.90
2019-02-28T22:34:28.221Z,99.90
2019-02-28T22:36:57.326Z,99.90
2019-02-28T22:39:26.714Z,99.90
2019-02-28T22:41:54.579Z,99.90
2019-02-28T22:44:22.589Z,99.90
2019-02-28T22:46:50.363Z,99.90
2019-02-28T22:49:18.436Z,99.90
2019-02-28T22:51:46.418Z,99.90
2019-02-28T22:54:14.198Z,99.90
2019-02-28T22:56:41.982Z,99.90
2019-02-28T22:59:10.025Z,99.90
2019-02-28T23:01:40.051Z,99.90
2019-02-28T23:04:08.025Z,99.90
2019-02-28T23:06:35.861Z,99.90
2019-02-28T23:09:05.278Z,99.90
2019-02-28T23:11:33.284Z,99.90
2019-02-28T23:14:01.069Z,99.90
2019-02-28T23:16:28.844Z,99.90
2019-02-28T23:18:57.932Z,99.90
2019-02-28T23:21:25.726Z,99.90
2019-02-28T23:23:53.719Z,99.90
2019-02-28T23:26:25.960Z,99.90
2019-02-28T23:29:13.307Z,99.90
2019-02-28T23:32:16.016Z,99.90
2019-02-28T23:34:51.424Z,99.90
2019-02-28T23:37:19.451Z,99.90
2019-02-28T23:39:47.267Z,99.90
2019-02-28T23:42:15.044Z,99.90
2019-02-28T23:44:43.064Z,99.90
2019-02-28T23:47:11.017Z,99.90
2019-02-28T23:49:38.791Z,99.90
2019-02-28T23:52:06.765Z,99.90
2019-02-28T23:54:34.523Z,99.90
2019-02-28T23:57:02.334Z,99.90
2019-02-28T23:59:30.263Z,99.90
